createdAt,value
2018-06-24T00:00:06.163Z,3.73
2018-06-24T00:02:34.544Z,3.60
2018-06-24T00:05:03.959Z,3.70
2018-06-24T00:07:32.362Z,3.80
2018-06-24T00:10:00.787Z,4.23
2018-06-24T00:12:29.166Z,3.70
2018-06-24T00:14:57.547Z,4.10
2018-06-24T00:17:25.944Z,3.30
2018-06-24T00:19:54.326Z,3.87
2018-06-24T00:22:22.730Z,3.80
2018-06-24T00:24:51.870Z,3.60
2018-06-24T00:27:20.398Z,4.30
2018-06-24T00:29:48.774Z,4.30
2018-06-24T00:32:17.176Z,3.87
2018-06-24T00:34:45.562Z,3.90
2018-06-24T00:37:13.968Z,4.23
2018-06-24T00:39:42.351Z,3.63
2018-06-24T00:42:10.890Z,3.30
2018-06-24T00:44:39.282Z,3.30
2018-06-24T00:47:07.686Z,3.30
2018-06-24T00:49:36.063Z,3.67
2018-06-24T00:52:04.466Z,3.67
2018-06-24T00:54:32.845Z,4.17
2018-06-24T00:57:01.330Z,3.60
2018-06-24T00:59:40.970Z,3.33
2018-06-24T01:02:09.378Z,3.83
2018-06-24T01:04:37.809Z,3.33
2018-06-24T01:07:06.214Z,3.57
2018-06-24T01:09:34.670Z,3.50
2018-06-24T01:12:03.200Z,3.52
2018-06-24T01:14:31.565Z,2.93
2018-06-24T01:16:59.953Z,3.30
2018-06-24T01:19:28.323Z,3.43
2018-06-24T01:21:56.719Z,2.33
2018-06-24T01:24:25.229Z,3.03
2018-06-24T01:29:30.425Z,3.10
2018-06-24T01:31:58.818Z,3.97
2018-06-24T01:34:27.187Z,3.53
2018-06-24T01:36:55.654Z,3.58
2018-06-24T01:39:24.026Z,3.07
2018-06-24T01:41:52.391Z,3.37
2018-06-24T01:44:20.818Z,3.00
2018-06-24T01:46:49.202Z,3.27
2018-06-24T01:49:17.590Z,3.10
2018-06-24T01:51:46.034Z,4.00
2018-06-24T01:54:18.122Z,3.80
2018-06-24T01:56:46.481Z,3.27
2018-06-24T01:59:14.873Z,3.17
2018-06-24T02:01:43.238Z,2.87
2018-06-24T02:04:11.622Z,2.90
2018-06-24T02:06:39.985Z,3.70
2018-06-24T02:09:11.370Z,3.53
2018-06-24T02:11:39.924Z,3.03
2018-06-24T02:14:08.315Z,3.03
2018-06-24T02:16:37.399Z,4.40
2018-06-24T02:19:06.313Z,3.77
2018-06-24T02:21:34.681Z,3.50
2018-06-24T02:24:03.086Z,3.27
2018-06-24T02:26:31.466Z,2.87
2018-06-24T02:28:59.886Z,3.60
2018-06-24T02:31:28.262Z,3.03
2018-06-24T02:33:56.835Z,3.40
2018-06-24T02:36:25.215Z,3.00
2018-06-24T02:38:53.618Z,3.10
2018-06-24T02:41:21.986Z,2.50
2018-06-24T02:43:50.382Z,2.80
2018-06-24T02:46:18.745Z,2.90
2018-06-24T02:48:47.182Z,2.50
2018-06-24T02:51:15.577Z,2.77
2018-06-24T02:53:44.013Z,2.93
2018-06-24T02:56:12.366Z,3.23
2018-06-24T02:58:40.774Z,2.10
2018-06-24T03:01:09.274Z,2.87
2018-06-24T03:03:37.645Z,3.00
2018-06-24T03:06:06.187Z,2.40
2018-06-24T03:08:34.431Z,3.13
2018-06-24T03:11:02.859Z,2.03
2018-06-24T03:13:31.236Z,2.53
2018-06-24T03:15:59.618Z,2.60
2018-06-24T03:18:28.058Z,2.30
2018-06-24T03:20:56.458Z,2.70
2018-06-24T03:23:24.837Z,2.40
2018-06-24T03:25:53.272Z,2.40
2018-06-24T03:28:21.642Z,2.07
2018-06-24T03:30:50.031Z,1.77
2018-06-24T03:33:18.471Z,2.35
2018-06-24T03:35:47.097Z,2.23
2018-06-24T03:38:15.458Z,2.43
2018-06-24T03:40:43.837Z,2.23
2018-06-24T03:43:12.213Z,2.07
2018-06-24T03:45:40.612Z,2.93
2018-06-24T03:48:08.977Z,2.30
2018-06-24T03:50:37.361Z,2.27
2018-06-24T03:53:06.073Z,2.23
2018-06-24T03:55:34.553Z,2.10
2018-06-24T03:58:03.104Z,2.60
2018-06-24T04:00:46.606Z,2.43
2018-06-24T04:03:14.971Z,2.23
2018-06-24T04:05:43.430Z,2.10
2018-06-24T04:08:11.849Z,1.90
2018-06-24T04:10:40.274Z,1.83
2018-06-24T04:13:08.650Z,2.83
2018-06-24T04:15:37.037Z,2.30
2018-06-24T04:18:05.630Z,2.57
2018-06-24T04:20:34.106Z,1.97
2018-06-24T04:23:02.482Z,2.20
2018-06-24T04:25:30.874Z,2.30
2018-06-24T04:27:59.270Z,1.80
2018-06-24T04:30:27.757Z,2.30
2018-06-24T04:32:56.154Z,2.00
2018-06-24T04:35:24.526Z,1.97
2018-06-24T04:37:52.929Z,2.33
2018-06-24T04:40:21.291Z,2.43
2018-06-24T04:42:49.674Z,2.30
2018-06-24T04:45:18.042Z,2.20
2018-06-24T04:47:46.502Z,2.17
2018-06-24T04:50:14.843Z,2.13
2018-06-24T04:52:43.262Z,2.80
2018-06-24T04:55:11.632Z,2.27
2018-06-24T04:57:40.027Z,2.00
2018-06-24T05:00:08.406Z,2.00
2018-06-24T05:02:36.798Z,1.97
2018-06-24T05:05:05.371Z,1.93
2018-06-24T05:07:33.763Z,2.60
2018-06-24T05:10:03.585Z,1.60
2018-06-24T05:12:31.992Z,2.47
2018-06-24T05:15:00.366Z,1.80
2018-06-24T05:17:28.758Z,1.77
2018-06-24T05:19:57.119Z,1.73
2018-06-24T05:22:25.515Z,1.97
2018-06-24T05:24:53.878Z,1.47
2018-06-24T05:27:22.269Z,2.00
2018-06-24T05:29:50.644Z,1.97
2018-06-24T05:32:19.041Z,2.10
2018-06-24T05:34:47.513Z,2.07
2018-06-24T05:37:15.910Z,2.00
2018-06-24T05:39:44.357Z,2.22
2018-06-24T05:42:13.148Z,2.40
2018-06-24T05:44:43.349Z,1.47
2018-06-24T05:47:11.742Z,1.90
2018-06-24T05:49:40.119Z,1.30
2018-06-24T05:52:08.516Z,1.50
2018-06-24T05:54:36.878Z,1.40
2018-06-24T05:57:05.285Z,1.60
2018-06-24T05:59:33.662Z,1.07
2018-06-24T06:02:02.038Z,1.17
2018-06-24T06:04:30.505Z,2.00
2018-06-24T06:06:59.002Z,1.13
2018-06-24T06:09:27.396Z,1.10
2018-06-24T06:11:55.787Z,1.30
2018-06-24T06:14:24.173Z,1.20
2018-06-24T06:16:52.579Z,1.20
2018-06-24T06:19:20.991Z,1.10
2018-06-24T06:21:49.512Z,1.60
2018-06-24T06:24:38.781Z,0.80
2018-06-24T06:27:07.150Z,1.37
2018-06-24T06:29:35.641Z,1.33
2018-06-24T06:32:04.017Z,1.47
2018-06-24T06:34:32.409Z,1.40
2018-06-24T06:37:01.862Z,1.20
2018-06-24T06:39:35.217Z,1.12
2018-06-24T06:42:03.959Z,1.27
2018-06-24T06:44:32.350Z,1.63
2018-06-24T06:47:00.720Z,1.20
2018-06-24T06:49:29.142Z,1.33
2018-06-24T06:51:57.517Z,1.23
2018-06-24T06:54:41.689Z,0.90
2018-06-24T06:57:10.418Z,1.63
2018-06-24T06:59:39.743Z,1.40
2018-06-24T07:02:08.118Z,0.97
2018-06-24T07:04:36.530Z,1.43
2018-06-24T07:07:04.953Z,1.03
2018-06-24T07:09:33.337Z,0.90
2018-06-24T07:12:01.735Z,0.93
2018-06-24T07:14:30.203Z,0.90
2018-06-24T07:16:58.574Z,1.10
2018-06-24T07:19:26.973Z,1.10
2018-06-24T07:21:55.346Z,1.17
2018-06-24T07:24:59.210Z,1.13
2018-06-24T07:27:27.582Z,1.13
2018-06-24T07:29:55.973Z,1.03
2018-06-24T07:32:24.457Z,0.97
2018-06-24T07:34:52.858Z,1.40
2018-06-24T07:37:21.226Z,1.30
2018-06-24T07:39:49.850Z,1.40
2018-06-24T07:42:54.766Z,1.27
2018-06-24T07:45:23.182Z,1.40
2018-06-24T07:47:51.557Z,1.37
2018-06-24T07:50:20.051Z,1.20
2018-06-24T07:52:48.345Z,1.00
2018-06-24T07:55:16.735Z,1.13
2018-06-24T07:57:45.102Z,1.53
2018-06-24T08:00:13.502Z,1.47
2018-06-24T08:02:41.874Z,1.40
2018-06-24T08:05:10.287Z,1.13
2018-06-24T08:07:38.649Z,1.20
2018-06-24T08:10:07.066Z,1.20
2018-06-24T08:12:39.101Z,1.00
2018-06-24T08:15:07.502Z,0.97
2018-06-24T08:17:35.878Z,1.17
2018-06-24T08:20:04.298Z,1.30
2018-06-24T08:22:32.766Z,1.15
2018-06-24T08:25:01.143Z,1.60
2018-06-24T08:27:29.572Z,1.57
2018-06-24T08:29:57.937Z,1.10
2018-06-24T08:32:26.329Z,0.93
2018-06-24T08:34:54.694Z,1.03
2018-06-24T08:37:23.079Z,1.30
2018-06-24T08:39:51.478Z,0.93
2018-06-24T08:42:44.990Z,1.03
2018-06-24T08:45:17.210Z,1.27
2018-06-24T08:47:45.602Z,1.53
2018-06-24T08:50:13.979Z,3.33
2018-06-24T08:52:42.379Z,1.20
2018-06-24T08:55:10.813Z,1.23
2018-06-24T08:57:39.341Z,0.93
2018-06-24T09:00:08.110Z,1.10
2018-06-24T09:02:36.526Z,1.10
2018-06-24T09:05:04.973Z,1.17
2018-06-24T09:07:33.390Z,1.63
2018-06-24T09:10:01.777Z,1.00
2018-06-24T09:12:38.221Z,1.53
2018-06-24T09:15:06.586Z,1.73
2018-06-24T09:17:35.042Z,1.22
2018-06-24T09:20:03.810Z,1.30
2018-06-24T09:22:32.209Z,1.10
2018-06-24T09:25:00.598Z,1.20
2018-06-24T09:27:29.069Z,1.32
2018-06-24T09:29:57.509Z,1.43
2018-06-24T09:32:25.906Z,1.30
2018-06-24T09:34:54.273Z,1.23
2018-06-24T09:37:22.663Z,1.57
2018-06-24T09:39:51.040Z,1.20
2018-06-24T09:42:19.427Z,1.50
2018-06-24T09:44:47.786Z,1.27
2018-06-24T09:47:16.182Z,2.00
2018-06-24T09:49:44.549Z,1.43
2018-06-24T09:52:12.941Z,1.17
2018-06-24T09:54:41.321Z,1.50
2018-06-24T09:57:09.730Z,1.50
2018-06-24T09:59:38.100Z,4.37
2018-06-24T10:02:06.722Z,2.37
2018-06-24T10:04:35.209Z,1.17
2018-06-24T10:07:03.569Z,1.00
2018-06-24T10:09:31.954Z,1.20
2018-06-24T10:12:00.342Z,1.37
2018-06-24T10:14:28.730Z,1.10
2018-06-24T10:16:57.093Z,0.80
2018-06-24T10:19:25.496Z,1.27
2018-06-24T10:21:53.909Z,0.73
2018-06-24T10:24:22.314Z,1.10
2018-06-24T10:26:50.677Z,1.00
2018-06-24T10:29:19.080Z,1.23
2018-06-24T10:31:47.454Z,0.70
2018-06-24T10:34:15.839Z,0.90
2018-06-24T10:36:44.204Z,0.70
2018-06-24T10:39:12.935Z,0.87
2018-06-24T10:41:41.302Z,0.80
2018-06-24T10:44:09.689Z,1.10
2018-06-24T10:46:38.078Z,1.40
2018-06-24T10:49:06.474Z,1.00
2018-06-24T10:51:34.842Z,1.53
2018-06-24T10:54:03.237Z,0.90
2018-06-24T10:56:31.610Z,1.30
2018-06-24T10:59:00.034Z,0.60
2018-06-24T11:01:28.397Z,0.80
2018-06-24T11:03:56.793Z,0.60
2018-06-24T11:06:25.152Z,1.00
2018-06-24T11:08:53.544Z,0.60
2018-06-24T11:11:22.042Z,0.60
2018-06-24T11:13:50.438Z,0.90
2018-06-24T11:16:18.900Z,0.77
2018-06-24T11:18:47.303Z,0.70
2018-06-24T11:21:15.670Z,0.80
2018-06-24T11:23:44.120Z,0.60
2018-06-24T11:26:12.516Z,0.80
2018-06-24T11:28:40.873Z,0.80
2018-06-24T11:31:09.600Z,1.17
2018-06-24T11:33:37.902Z,1.07
2018-06-24T11:36:06.385Z,1.00
2018-06-24T11:38:34.758Z,0.90
2018-06-24T11:41:03.197Z,1.17
2018-06-24T11:43:31.562Z,0.80
2018-06-24T11:46:00.094Z,0.90
2018-06-24T11:48:28.468Z,1.20
2018-06-24T11:50:56.858Z,1.07
2018-06-24T11:53:25.246Z,2.80
2018-06-24T11:55:53.921Z,0.90
2018-06-24T11:58:22.291Z,1.57
2018-06-24T12:00:50.699Z,1.13
2018-06-24T12:03:19.069Z,0.87
2018-06-24T12:05:47.742Z,0.80
2018-06-24T12:08:16.133Z,1.17
2018-06-24T12:10:44.593Z,1.10
2018-06-24T12:13:12.950Z,1.33
2018-06-24T12:15:41.330Z,0.73
2018-06-24T12:18:09.712Z,1.00
2018-06-24T12:20:38.134Z,0.87
2018-06-24T12:23:06.501Z,0.70
2018-06-24T12:25:34.950Z,0.80
2018-06-24T12:28:03.325Z,0.77
2018-06-24T12:30:31.710Z,0.90
2018-06-24T12:33:00.106Z,0.90
2018-06-24T12:35:28.486Z,0.80
2018-06-24T12:37:56.861Z,0.70
2018-06-24T12:40:31.373Z,1.00
2018-06-24T12:43:00.807Z,1.17
2018-06-24T12:45:29.229Z,1.23
2018-06-24T12:47:57.631Z,1.00
2018-06-24T12:50:25.993Z,0.90
2018-06-24T12:52:54.445Z,0.90
2018-06-24T12:55:22.768Z,0.90
2018-06-24T12:57:51.158Z,1.13
2018-06-24T13:00:20.070Z,1.10
2018-06-24T13:02:47.937Z,0.90
2018-06-24T13:05:16.302Z,0.90
2018-06-24T13:07:44.909Z,1.27
2018-06-24T13:10:13.310Z,1.10
2018-06-24T13:12:41.705Z,0.73
2018-06-24T13:15:10.082Z,1.23
2018-06-24T13:17:38.471Z,0.70
2018-06-24T13:20:06.863Z,1.17
2018-06-24T13:22:35.255Z,0.60
2018-06-24T13:25:03.637Z,0.77
2018-06-24T13:27:32.037Z,0.60
2018-06-24T13:30:00.413Z,0.63
2018-06-24T13:32:28.813Z,0.80
2018-06-24T13:34:57.184Z,0.70
2018-06-24T13:37:25.600Z,0.90
2018-06-24T13:39:53.974Z,0.70
2018-06-24T13:42:22.440Z,0.70
2018-06-24T13:44:50.768Z,0.90
2018-06-24T13:47:19.157Z,1.00
2018-06-24T13:49:47.542Z,0.80
2018-06-24T13:52:15.953Z,0.80
2018-06-24T13:54:44.371Z,0.70
2018-06-24T13:57:12.758Z,0.80
2018-06-24T13:59:41.126Z,0.70
2018-06-24T14:02:09.554Z,1.10
2018-06-24T14:04:37.935Z,1.00
2018-06-24T14:07:06.318Z,0.60
2018-06-24T14:09:34.717Z,0.93
2018-06-24T14:12:03.110Z,0.90
2018-06-24T14:14:31.498Z,0.70
2018-06-24T14:16:59.876Z,1.00
2018-06-24T14:19:28.267Z,1.00
2018-06-24T14:21:56.649Z,1.00
2018-06-24T14:24:25.366Z,1.37
2018-06-24T14:26:53.854Z,0.73
2018-06-24T14:29:22.250Z,1.10
2018-06-24T14:31:50.621Z,0.90
2018-06-24T14:34:19.002Z,1.10
2018-06-24T14:36:47.445Z,1.00
2018-06-24T14:39:16.093Z,1.17
2018-06-24T14:41:44.462Z,1.00
2018-06-24T14:44:12.867Z,1.10
2018-06-24T14:46:41.250Z,1.20
2018-06-24T14:49:09.637Z,2.53
2018-06-24T14:51:38.007Z,3.33
2018-06-24T14:54:06.400Z,1.73
2018-06-24T14:56:34.774Z,1.40
2018-06-24T14:59:03.179Z,0.90
2018-06-24T15:01:31.815Z,0.87
2018-06-24T15:04:00.137Z,1.47
2018-06-24T15:06:28.612Z,1.47
2018-06-24T15:08:57.001Z,1.30
2018-06-24T15:11:25.438Z,1.10
2018-06-24T15:13:54.226Z,0.90
2018-06-24T15:16:22.585Z,1.20
2018-06-24T15:18:50.977Z,1.37
2018-06-24T15:21:19.347Z,0.90
2018-06-24T15:23:47.734Z,1.37
2018-06-24T15:26:16.507Z,0.90
2018-06-24T15:28:44.919Z,1.67
2018-06-24T15:31:13.294Z,1.27
2018-06-24T15:33:41.679Z,1.10
2018-06-24T15:36:10.314Z,0.80
2018-06-24T15:38:38.677Z,1.50
2018-06-24T15:41:07.077Z,2.53
2018-06-24T15:43:35.438Z,1.00
2018-06-24T15:46:03.834Z,1.40
2018-06-24T15:48:32.198Z,1.80
2018-06-24T15:51:00.582Z,1.07
2018-06-24T15:53:28.942Z,1.33
2018-06-24T15:55:57.350Z,1.20
2018-06-24T15:58:25.709Z,1.27
2018-06-24T16:00:54.099Z,1.20
2018-06-24T16:03:22.474Z,0.90
2018-06-24T16:05:50.862Z,0.90
2018-06-24T16:08:19.233Z,0.70
2018-06-24T16:10:47.702Z,0.70
2018-06-24T16:13:16.066Z,0.73
2018-06-24T16:15:44.462Z,0.80
2018-06-24T16:18:12.842Z,1.07
2018-06-24T16:20:41.278Z,2.53
2018-06-24T16:23:09.633Z,2.07
2018-06-24T16:25:38.026Z,4.80
2018-06-24T16:28:06.985Z,1.00
2018-06-24T16:30:35.422Z,1.40
2018-06-24T16:33:03.790Z,1.10
2018-06-24T16:35:32.348Z,0.80
2018-06-24T16:38:00.719Z,1.23
2018-06-24T16:40:29.118Z,0.90
2018-06-24T16:42:57.490Z,1.00
2018-06-24T16:45:25.912Z,1.20
2018-06-24T16:47:54.442Z,1.00
2018-06-24T16:50:22.801Z,1.00
2018-06-24T16:52:51.276Z,0.50
2018-06-24T16:55:19.637Z,0.73
2018-06-24T16:57:48.021Z,1.13
2018-06-24T17:00:16.397Z,0.80
2018-06-24T17:02:44.829Z,1.10
2018-06-24T17:05:13.191Z,1.30
2018-06-24T17:07:41.579Z,1.10
2018-06-24T17:10:09.944Z,1.10
2018-06-24T17:12:38.434Z,0.90
2018-06-24T17:15:06.799Z,1.30
2018-06-24T17:17:35.187Z,1.00
2018-06-24T17:20:03.578Z,0.93
2018-06-24T17:22:31.965Z,0.93
2018-06-24T17:25:00.411Z,1.00
2018-06-24T17:27:28.793Z,1.10
2018-06-24T17:29:57.153Z,1.00
2018-06-24T17:32:25.554Z,1.23
2018-06-24T17:34:53.926Z,0.90
2018-06-24T17:37:22.310Z,1.07
2018-06-24T17:39:50.682Z,1.20
2018-06-24T17:42:19.077Z,1.40
2018-06-24T17:44:47.434Z,1.00
2018-06-24T17:47:15.834Z,0.80
2018-06-24T17:49:44.212Z,1.20
2018-06-24T17:52:12.601Z,1.50
2018-06-24T17:54:40.969Z,1.57
2018-06-24T17:57:09.361Z,0.80
2018-06-24T17:59:37.733Z,0.97
2018-06-24T18:02:06.137Z,0.90
2018-06-24T18:04:34.582Z,1.10
2018-06-24T18:07:02.946Z,1.30
2018-06-24T18:09:31.342Z,1.50
2018-06-24T18:11:59.741Z,1.20
2018-06-24T18:14:28.145Z,1.30
2018-06-24T18:16:56.519Z,1.87
2018-06-24T18:19:24.944Z,1.63
2018-06-24T18:21:53.309Z,1.87
2018-06-24T18:24:21.723Z,1.47
2018-06-24T18:26:50.199Z,1.47
2018-06-24T18:29:18.642Z,1.37
2018-06-24T18:31:47.011Z,1.30
2018-06-24T18:34:15.426Z,1.80
2018-06-24T18:36:43.934Z,1.47
2018-06-24T18:39:12.325Z,1.70
2018-06-24T18:41:40.737Z,1.80
2018-06-24T18:44:09.103Z,1.37
2018-06-24T18:46:37.650Z,2.03
2018-06-24T18:49:06.052Z,1.40
2018-06-24T18:51:34.451Z,1.60
2018-06-24T18:54:02.849Z,1.60
2018-06-24T18:56:31.266Z,1.80
2018-06-24T18:58:59.658Z,1.40
2018-06-24T19:01:28.014Z,1.60
2018-06-24T19:03:56.402Z,1.90
2018-06-24T19:06:24.765Z,2.27
2018-06-24T19:08:53.159Z,2.00
2018-06-24T19:11:21.608Z,1.60
2018-06-24T19:13:50.061Z,2.00
2018-06-24T19:16:18.422Z,2.13
2018-06-24T19:18:46.831Z,2.40
2018-06-24T19:21:15.369Z,1.80
2018-06-24T19:23:43.755Z,2.33
2018-06-24T19:26:12.134Z,2.00
2018-06-24T19:28:40.499Z,4.00
2018-06-24T19:31:08.886Z,3.20
2018-06-24T19:33:37.257Z,2.23
2018-06-24T19:36:05.642Z,2.43
2018-06-24T19:38:34.015Z,2.37
2018-06-24T19:41:02.402Z,2.57
2018-06-24T19:43:30.765Z,2.60
2018-06-24T19:45:59.170Z,2.57
2018-06-24T19:48:27.713Z,2.97
2018-06-24T19:50:56.095Z,2.80
2018-06-24T19:53:24.470Z,2.10
2018-06-24T19:55:52.853Z,2.57
2018-06-24T19:58:21.221Z,2.20
2018-06-24T20:00:49.682Z,2.33
2018-06-24T20:03:18.114Z,2.23
2018-06-24T20:05:46.466Z,2.47
2018-06-24T20:08:14.828Z,2.37
2018-06-24T20:10:43.241Z,2.37
2018-06-24T20:13:11.674Z,2.40
2018-06-24T20:15:40.059Z,2.13
2018-06-24T20:18:08.428Z,3.03
2018-06-24T20:20:36.873Z,2.20
2018-06-24T20:23:05.405Z,2.70
2018-06-24T20:25:33.797Z,2.70
2018-06-24T20:28:02.182Z,2.33
2018-06-24T20:30:30.591Z,2.20
2018-06-24T20:32:58.954Z,2.33
2018-06-24T20:35:27.366Z,2.80
2018-06-24T20:37:55.727Z,2.40
2018-06-24T20:40:24.089Z,2.60
2018-06-24T20:42:52.487Z,2.63
2018-06-24T20:45:20.874Z,2.70
2018-06-24T20:47:49.693Z,2.20
2018-06-24T20:50:18.105Z,2.93
2018-06-24T20:52:46.466Z,2.30
2018-06-24T20:55:14.835Z,3.30
2018-06-24T20:57:43.221Z,3.03
2018-06-24T21:00:11.599Z,2.73
2018-06-24T21:02:40.007Z,3.10
2018-06-24T21:05:08.401Z,3.27
2018-06-24T21:07:36.795Z,3.03
2018-06-24T21:10:05.193Z,3.60
2018-06-24T21:12:33.602Z,3.40
2018-06-24T21:15:02.151Z,3.20
2018-06-24T21:17:30.757Z,4.03
2018-06-24T21:19:59.165Z,4.00
2018-06-24T21:22:27.550Z,4.10
2018-06-24T21:24:55.913Z,4.00
2018-06-24T21:27:24.311Z,3.60
2018-06-24T21:29:52.679Z,3.90
2018-06-24T21:32:21.068Z,3.20
2018-06-24T21:34:49.442Z,3.70
2018-06-24T21:37:17.825Z,3.60
2018-06-24T21:39:46.185Z,3.47
2018-06-24T21:42:14.577Z,4.20
2018-06-24T21:44:42.939Z,4.17
2018-06-24T21:47:12.095Z,4.53
2018-06-24T21:49:40.464Z,4.50
2018-06-24T21:52:08.853Z,4.23
2018-06-24T21:54:37.221Z,4.20
2018-06-24T21:57:05.625Z,4.80
2018-06-24T21:59:33.989Z,4.90
2018-06-24T22:02:03.946Z,4.97
2018-06-24T22:04:32.333Z,5.40
2018-06-24T22:07:00.709Z,4.90
2018-06-24T22:09:29.106Z,5.27
2018-06-24T22:11:57.516Z,4.70
2018-06-24T22:14:25.905Z,4.00
2018-06-24T22:16:54.279Z,4.37
2018-06-24T22:19:22.674Z,5.40
2018-06-24T22:21:51.049Z,5.13
2018-06-24T22:24:19.441Z,4.80
2018-06-24T22:26:47.931Z,6.40
2018-06-24T22:29:16.326Z,4.90
2018-06-24T22:31:44.699Z,5.90
2018-06-24T22:34:13.106Z,5.60
2018-06-24T22:36:41.478Z,4.90
2018-06-24T22:39:11.167Z,4.93
2018-06-24T22:41:39.538Z,5.53
2018-06-24T22:44:07.934Z,4.73
2018-06-24T22:46:36.329Z,5.57
2018-06-24T22:49:04.994Z,6.00
2018-06-24T22:51:33.395Z,6.33
2018-06-24T22:54:01.782Z,4.37
2018-06-24T22:56:30.154Z,5.57
2018-06-24T22:59:10.633Z,5.90
2018-06-24T23:01:39.007Z,4.70
2018-06-24T23:04:07.418Z,4.30
2018-06-24T23:06:35.794Z,5.07
2018-06-24T23:09:06.018Z,5.87
2018-06-24T23:11:34.425Z,6.03
2018-06-24T23:14:02.814Z,6.07
2018-06-24T23:16:31.173Z,5.90
2018-06-24T23:18:59.557Z,5.30
2018-06-24T23:21:27.957Z,5.77
2018-06-24T23:23:56.369Z,5.50
2018-06-24T23:26:24.734Z,5.80
2018-06-24T23:28:53.146Z,6.40
2018-06-24T23:31:21.506Z,5.60
2018-06-24T23:33:49.874Z,5.70
2018-06-24T23:36:18.265Z,5.57
2018-06-24T23:38:46.634Z,5.30
2018-06-24T23:41:15.026Z,6.70
2018-06-24T23:43:43.385Z,6.13
2018-06-24T23:46:11.809Z,5.90
2018-06-24T23:48:40.174Z,5.93
2018-06-24T23:51:08.567Z,5.90
2018-06-24T23:53:36.937Z,5.63
2018-06-24T23:56:05.493Z,5.60
2018-06-24T23:58:33.857Z,6.10
